• Join FlightAware (Why Join?)
  • Login
  • US Flag 
06:44AM EDT


 

Airport Tracker/Info


-or-


 

Live Flight TrackerFlight Track Log ✈ G-VLIP ✈ 03-May-2012 ✈ EGKK / LGW - MUHA / HAV

Flight Track Log - Related Links

Times and Time Zones

All times are in EDT time to prevent confusion due to time zone crossing. See the G-VLIP flight status page for this flight to view local times or setup timezone preferences in your user account.

Time Position Orientation Groundspeed Altitude Reporting Facility
EDT Latitude Longitude Course Direction KTS MPH feet Rate Location/Type
08:13AM 51.2118 -0.2170 259° West 307 353 5,400  Level FlightAware ADS-B
08:13AM 51.2090 -0.2402 259° West 327 376 5,700 1,260 Climbing FlightAware ADS-B
08:13AM 51.2022 -0.2971 259° West 350 403 6,100 720 Climbing FlightAware ADS-B
08:14AM 51.1973 -0.3392 259° West 368 423 6,100 540 Level FlightAware ADS-B
08:14AM 51.1921 -0.3817 260° West 370 426 6,400 1,920 Climbing FlightAware ADS-B
08:14AM 51.1874 -0.4221 259° West 373 429 7,100 3,120 Climbing FlightAware ADS-B
08:14AM 51.1814 -0.4735 259° West 373 429 8,200 3,000 Climbing FlightAware ADS-B
08:15AM 51.1790 -0.4924 256° West 377 434 8,400 2,280 Climbing FlightAware ADS-B
08:15AM 51.1724 -0.5333 251° West 384 442 9,000 2,520 Climbing FlightAware ADS-B
08:15AM 51.1685 -0.5518 247° West 385 443 9,300 2,520 Climbing FlightAware ADS-B
08:15AM 51.1479 -0.6287 247° West 395 455 10,600 2,460 Climbing FlightAware ADS-B
08:16AM 51.1253 -0.7124 247° West 405 466 11,800 2,400 Climbing FlightAware ADS-B
08:16AM 51.0999 -0.8069 247° West 413 475 13,200 2,280 Climbing FlightAware ADS-B
08:17AM 51.0829 -0.8717 247° West 421 484 14,000 2,280 Climbing FlightAware ADS-B
08:17AM 51.0611 -0.9517 247° West 427 491 15,100 2,160 Climbing FlightAware ADS-B
08:18AM 51.0372 -1.0392 247° West 436 502 16,100 2,160 Climbing FlightAware ADS-B
08:18AM 51.0127 -1.1307 246° West 441 507 17,300 2,160 Climbing FlightAware ADS-B
08:19AM 50.9929 -1.2029 247° West 449 517 18,100 1,980 Climbing FlightAware ADS-B
08:19AM 50.9666 -1.2998 251° West 453 521 19,200 1,860 Climbing FlightAware ADS-B
08:20AM 50.9500 -1.3757 255° West 461 531 19,900 1,860 Climbing FlightAware ADS-B
08:20AM 50.9422 -1.4215 259° West 463 533 20,400 1,980 Climbing FlightAware ADS-B
08:20AM 50.9294 -1.5257 260° West 468 539 21,300 1,860 Climbing FlightAware ADS-B
08:21AM 50.9166 -1.6457 260° West 477 549 22,500 1,860 Climbing FlightAware ADS-B
08:22AM 50.9052 -1.7530 261° West 480 552 23,400 1,680 Climbing FlightAware ADS-B
08:22AM 50.8885 -1.9156 261° West 494 568 24,700 1,740 Climbing FlightAware ADS-B
08:23AM 50.8760 -2.0373 261° West 500 575 25,700 1,680 Climbing FlightAware ADS-B
08:23AM 50.8647 -2.1465 261° West 507 583 26,500 1,380 Climbing FlightAware ADS-B
08:24AM 50.8469 -2.3162 261° West 518 596 27,500 1,260 Climbing FlightAware ADS-B
08:25AM 50.8339 -2.4442 261° West 520 598 28,200 1,380 Climbing FlightAware ADS-B
08:25AM 50.8214 -2.5625 261° West 528 608 29,000 1,620 Climbing FlightAware ADS-B
08:26AM 50.8026 -2.7453 261° West 529 609 30,400 1,440 Climbing FlightAware ADS-B
08:27AM 50.7800 -2.9607 260° West 535 616 31,500 1,320 Climbing FlightAware ADS-B
08:28AM 50.7615 -3.1215 260° West 533 613 32,600 1,380 Climbing FlightAware ADS-B
08:28AM 50.7483 -3.2396 262° West 532 612 33,200 -900 Climbing FlightAware ADS-B
09:05AM 49.6570 -11.5440 266° West -1  Descending FlightAware Direct Aircraft Datalink
09:43AM 49.0000 -20.0000 265° West 535 616 34,000  Climbing ETMS Enhanced Traffic Management System
10:35AM 47.8770 -31.0760 255° West -1  Descending FlightAware Direct Aircraft Datalink
10:35AM 47.7392 -31.3473 255° West  Level FlightAware Approximate
10:36AM 47.7014 -31.5346 255° West  Level FlightAware Approximate
10:37AM 47.6632 -31.7216 255° West  Level FlightAware Approximate
10:38AM 47.6248 -31.9083 254° West  Level FlightAware Approximate
10:39AM 47.5860 -32.0947 254° West  Level FlightAware Approximate
10:40AM 47.5469 -32.2808 254° West  Level FlightAware Approximate
10:41AM 47.5075 -32.4667 254° West  Level FlightAware Approximate
10:42AM 47.4679 -32.6523 254° West  Level FlightAware Approximate
10:43AM 47.4279 -32.8376 254° West  Level FlightAware Approximate
10:44AM 47.3876 -33.0226 254° West  Level FlightAware Approximate
10:45AM 47.3471 -33.2074 254° West  Level FlightAware Approximate
10:46AM 47.3062 -33.3918 254° West  Level FlightAware Approximate
10:47AM 47.2651 -33.5760 253° West  Level FlightAware Approximate
10:48AM 47.2236 -33.7599 253° West  Level FlightAware Approximate
10:49AM 47.1819 -33.9435 253° West  Level FlightAware Approximate
10:50AM 47.1399 -34.1268 253° West  Level FlightAware Approximate
10:51AM 47.0975 -34.3098 253° West  Level FlightAware Approximate
10:52AM 47.0549 -34.4926 253° West  Level FlightAware Approximate
10:53AM 47.0120 -34.6750 253° West  Level FlightAware Approximate
10:54AM 46.9688 -34.8571 253° West  Level FlightAware Approximate
10:55AM 46.9253 -35.0390 253° West  Level FlightAware Approximate
10:56AM 46.8815 -35.2205 253° West  Level FlightAware Approximate
10:57AM 46.8375 -35.4018 253° West  Level FlightAware Approximate
10:58AM 46.7931 -35.5827 252° West  Level FlightAware Approximate
10:59AM 46.7485 -35.7634 252° West  Level FlightAware Approximate
11:00AM 46.7036 -35.9437 252° West  Level FlightAware Approximate
11:01AM 46.6584 -36.1238 252° West  Level FlightAware Approximate
11:02AM 46.6129 -36.3035 252° West  Level FlightAware Approximate
11:02AM 46.7187 -36.1404 252° West  Level FlightAware Approximate
11:04AM 46.6400 -36.4455 251° West  Level FlightAware Approximate
11:05AM 46.5933 -36.6245 251° West  Level FlightAware Approximate
11:06AM 46.5464 -36.8033 251° West  Level FlightAware Approximate
11:07AM 46.4992 -36.9817 251° West  Level FlightAware Approximate
11:08AM 46.4517 -37.1598 251° West  Level FlightAware Approximate
11:09AM 46.4039 -37.3376 251° West  Level FlightAware Approximate
11:10AM 46.3559 -37.5151 251° West  Level FlightAware Approximate
11:11AM 46.3076 -37.6923 251° West  Level FlightAware Approximate
11:12AM 46.2590 -37.8692 251° West  Level FlightAware Approximate
11:13AM 46.2101 -38.0457 251° West  Level FlightAware Approximate
11:14AM 46.1610 -38.2220 251° West  Level FlightAware Approximate
11:15AM 46.1116 -38.3979 251° West  Level FlightAware Approximate
11:16AM 46.0619 -38.5735 251° West  Level FlightAware Approximate
11:17AM 46.0120 -38.7488 251° West  Level FlightAware Approximate
11:18AM 45.9618 -38.9238 251° West  Level FlightAware Approximate
11:19AM 45.9113 -39.0985 251° West  Level FlightAware Approximate
11:20AM 45.8606 -39.2728 251° West  Level FlightAware Approximate
11:21AM 45.8096 -39.4468 251° West  Level FlightAware Approximate
11:22AM 45.7583 -39.6205 251° West  Level FlightAware Approximate
11:23AM 45.7068 -39.7939 251° West  Level FlightAware Approximate
11:24AM 45.6550 -39.9670 251° West  Level FlightAware Approximate
11:25AM 45.6029 -40.1397 251° West  Level FlightAware Approximate
11:26AM 45.5506 -40.3121 251° West  Level FlightAware Approximate
11:27AM 45.4981 -40.4842 251° West  Level FlightAware Approximate
11:28AM 45.4452 -40.6560 251° West  Level FlightAware Approximate
11:29AM 45.3921 -40.8275 251° West  Level FlightAware Approximate
11:30AM 45.3388 -40.9986 252° West  Level FlightAware Approximate
11:31AM 45.2852 -41.1694 252° West  Level FlightAware Approximate
11:32AM 45.2313 -41.3399 252° West  Level FlightAware Approximate
11:33AM 45.1772 -41.5101 252° West  Level FlightAware Approximate
11:34AM 45.1229 -41.6799 253° West  Level FlightAware Approximate
11:35AM 45.0683 -41.8494 253° West  Level FlightAware Approximate
11:36AM 45.0134 -42.0186 254° West  Level FlightAware Approximate
11:37AM 44.9583 -42.1875 255° West  Level FlightAware Approximate
11:38AM 44.9030 -42.3560 256° West  Level FlightAware Approximate
11:39AM 44.8436 -42.5217 257° West  Level FlightAware Approximate
11:40AM 44.7840 -42.6870 259° West  Level FlightAware Approximate
11:41AM 44.7242 -42.8519 262° West  Level FlightAware Approximate
11:42AM 44.6641 -43.0165 266° West  Level FlightAware Approximate
11:43AM 44.6038 -43.1808 272° West  Level FlightAware Approximate
11:44AM 44.5432 -43.3447 281° West  Level FlightAware Approximate
11:45AM 44.4824 -43.5083 297° West  Level FlightAware Approximate
11:46AM 44.4214 -43.6715 322° Northwest  Level FlightAware Approximate
11:46AM 44.6167 -43.8833 242° Southwest 464 534 36,000  Level New York Oceanic (ODAPS)
12:06PM 43.3167 -47.0667 240° Southwest 467 537 36,000  Level New York Oceanic (ODAPS)
12:16PM 42.6167 -48.6667 238° Southwest 471 542 36,900  Climbing New York Oceanic (ODAPS)
12:25PM 42.0000 -50.0000 236° Southwest 466 536 37,000  Climbing New York Oceanic (ODAPS)
12:26PM 41.9500 -50.1000 235° Southwest 466 536 37,000  Level New York Oceanic (ODAPS)
12:46PM 40.4333 -52.9167 238° Southwest 467 537 38,000 -1,620 Climbing New York Oceanic (ODAPS)
12:50PM 40.1540 -53.5090 232° Southwest -1  Descending FlightAware Direct Aircraft Datalink
01:07PM 38.8167 -55.6833 232° Southwest 475 547 38,000 960 Climbing New York Oceanic (ODAPS)
01:27PM 37.1167 -58.3500 230° Southwest 469 540 38,000  Level New York Oceanic (ODAPS)
01:40PM 36.0000 -60.0000 229° Southwest 475 547 38,000  Level New York Oceanic (ODAPS)
01:47PM 35.4000 -60.8333 229° Southwest 479 551 38,000  Level New York Oceanic (ODAPS)
01:58PM 34.4011 -62.2100 233° Southwest 500 575 38,000  Level New York Center
01:59PM 34.3300 -62.3233 240° Southwest 489 563 38,000  Level New York Center
02:00PM 34.2572 -62.4764 238° Southwest 489 563 38,000  Level New York Center
02:01PM 34.1950 -62.5983 241° Southwest 482 555 38,000  Level New York Center
02:02PM 34.1258 -62.7481 243° Southwest 482 555 38,000  Level New York Center
02:03PM 34.0647 -62.8919 240° Southwest 482 555 38,000  Level New York Center
02:04PM 34.0061 -63.0153 240° Southwest 482 555 38,000  Level New York Center
02:05PM 33.9344 -63.1647 241° Southwest 482 555 38,000  Level New York Center
02:06PM 33.8703 -63.3031 240° Southwest 487 560 38,000  Level New York Center
02:07PM 33.8111 -63.4258 240° Southwest 487 560 38,000  Level New York Center
02:08PM 33.7392 -63.5769 241° Southwest 487 560 38,000  Level New York Center
02:09PM 33.6819 -63.7017 240° Southwest 487 560 38,000  Level New York Center
02:10PM 33.6097 -63.8547 240° Southwest 487 560 38,000  Level New York Center
02:11PM 33.5464 -63.9869 241° Southwest 487 560 38,000  Level New York Center
02:12PM 33.4889 -64.1111 241° Southwest 487 560 38,000  Level New York Center
02:13PM 33.4197 -64.2583 239° Southwest 487 560 38,000  Level New York Center
02:14PM 33.3578 -64.3825 240° Southwest 487 560 38,000  Level New York Center
02:15PM 33.2864 -64.5319 240° Southwest 487 560 38,000  Level New York Center
02:16PM 33.2206 -64.6683 239° Southwest 487 560 38,000  Level New York Center
02:17PM 33.1525 -64.8044 240° Southwest 492 566 38,000  Level New York Center
02:18PM 33.0919 -64.9278 239° Southwest 487 560 38,000  Level New York Center
02:19PM 33.0158 -65.0789 240° Southwest 487 560 38,000  Level New York Center
02:20PM 32.9514 -65.2142 239° Southwest 487 560 38,000  Level New York Center
02:21PM 32.8883 -65.3394 239° Southwest 487 560 38,000  Level New York Center
02:22PM 32.8117 -65.4900 240° Southwest 493 567 38,000  Level New York Center
02:23PM 32.7506 -65.6169 239° Southwest 493 567 38,000  Level New York Center
02:24PM 32.6758 -65.7669 239° Southwest 488 562 38,000  Level New York Center
02:25PM 32.6044 -65.9067 239° Southwest 488 562 38,000  Level New York Center
02:26PM 32.5428 -66.0283 239° Southwest 488 562 38,000  Level New York Center
02:27PM 32.4653 -66.1825 238° Southwest 493 567 38,000  Level New York Center
02:28PM 32.3953 -66.3164 239° Southwest 491 565 38,000  Level New York Center
02:29PM 32.3333 -66.4397 240° Southwest 491 565 38,000  Level New York Center
02:30PM 32.2594 -66.5881 239° Southwest 485 558 38,000  Level New York Center
02:31PM 32.1989 -66.7086 238° Southwest 485 558 38,000  Level New York Center
02:32PM 32.1206 -66.8544 238° Southwest 485 558 38,000  Level New York Center
02:33PM 32.0517 -66.9847 241° Southwest 480 552 38,000  Level New York Center
02:34PM 31.9950 -67.1044 238° Southwest 480 552 38,000  Level New York Center
02:35PM 31.9222 -67.2442 237° Southwest 470 541 38,000  Level New York Center
02:36PM 31.8569 -67.3617 238° Southwest 470 541 38,000  Level New York Center
02:37PM 31.7817 -67.5011 237° Southwest 470 541 38,000  Level New York Center
02:38PM 31.7100 -67.6306 238° Southwest 470 541 38,000  Level New York Center
02:39PM 31.6483 -67.7469 240° Southwest 470 541 38,000  Level New York Center
02:40PM 31.5769 -67.8931 236° Southwest 475 547 38,000  Level New York Center
02:41PM 31.5031 -68.0194 244° Southwest 475 547 38,000  Level New York Center
02:41PM 31.4833 -68.0667 236° Southwest 465 535 38,000  Level New York Oceanic (ODAPS)
02:42PM 31.4431 -68.1356 243° Southwest 480 552 38,000  Level New York Center
02:43PM 31.4000 -68.2333 240° Southwest 470 541 38,000  Level New York Oceanic (ODAPS)
02:50PM 30.9000 -69.2333 241° Southwest 474 545 38,000  Level New York Oceanic (ODAPS)
02:59PM 30.4000 -70.2667 235° Southwest 476 548 38,000  Level New York Oceanic (ODAPS)
03:00PM 30.3500 -70.3500 238° Southwest 478 550 38,000  Level New York Oceanic (ODAPS)
03:20PM 28.8833 -73.0167 237° Southwest 478 550 38,000  Level New York Oceanic (ODAPS)
03:28PM 28.2500 -74.1167 237° Southwest 486 559 38,000  Level New York Oceanic (ODAPS)
03:38PM 27.5447 -75.3333 238° Southwest 487 560 38,000  Level Miami Center
03:39PM 27.4731 -75.4608 229° Southwest 493 567 38,000  Level Miami Center
03:40PM 27.3842 -75.5742 227° Southwest 482 555 38,000  Level Miami Center
03:41PM 27.2911 -75.6850 228° Southwest 489 563 38,000  Level Miami Center
03:42PM 27.2003 -75.7981 228° Southwest 489 563 38,000  Level Miami Center
03:43PM 27.1111 -75.9111 228° Southwest 489 563 38,000  Level Miami Center
03:44PM 27.0200 -76.0261 229° Southwest 489 563 38,000  Level Miami Center
03:45PM 26.9328 -76.1386 226° Southwest 489 563 38,000  Level Miami Center
03:46PM 26.8372 -76.2486 227° Southwest 489 563 38,000  Level Miami Center
03:47PM 26.7458 -76.3583 228° Southwest 489 563 38,000  Level Miami Center
03:48PM 26.6542 -76.4728 228° Southwest 489 563 38,000  Level Miami Center
03:49PM 26.5647 -76.5822 226° Southwest 489 563 38,000  Level Miami Center
03:50PM 26.4686 -76.6917 227° Southwest 489 563 38,000  Level Miami Center
03:51PM 26.3769 -76.8031 227° Southwest 489 563 38,000  Level Miami Center
03:52PM 26.2850 -76.9144 227° Southwest 494 568 38,000 -240 Level Miami Center
03:53PM 26.1908 -77.0256 228° Southwest 494 568 37,600 -540 Descending Miami Center
03:54PM 26.0986 -77.1386 226° Southwest 494 568 37,000 -300 Descending Miami Center
03:55PM 26.0067 -77.2447 227° Southwest 489 563 37,000  Level Miami Center
03:56PM 25.9142 -77.3556 227° Southwest 489 563 37,000  Level Miami Center
03:57PM 25.8114 -77.4797 226° Southwest 489 563 37,000  Level Miami Center
03:58PM 25.7147 -77.5900 228° Southwest 489 563 37,000  Level Miami Center
03:59PM 25.6203 -77.7047 226° Southwest 494 568 37,000  Level Miami Center
04:00PM 25.5256 -77.8122 227° Southwest 499 574 37,000  Level Miami Center
04:01PM 25.4286 -77.9264 226° Southwest 499 574 37,000  Level Miami Center
04:02PM 25.3336 -78.0361 227° Southwest 499 574 37,000  Level Miami Center
04:03PM 25.2367 -78.1500 225° Southwest 499 574 37,000  Level Miami Center
04:04PM 25.1394 -78.2569 227° Southwest 499 574 37,000  Level Miami Center
04:05PM 25.0464 -78.3681 226° Southwest 499 574 37,000  Level Miami Center
04:06PM 24.9533 -78.4747 225° Southwest 499 574 37,000  Level Miami Center
04:07PM 24.8561 -78.5833 227° Southwest 499 574 37,000  Level Miami Center
04:08PM 24.7628 -78.6919 224° Southwest 499 574 37,000  Level Miami Center
04:09PM 24.6844 -78.7753 229° Southwest 499 574 37,000  Level Miami Center
04:10PM 24.5908 -78.8928 226° Southwest 494 568 37,000  Level Miami Center
04:11PM 24.4933 -79.0031 227° Southwest 489 563 37,000  Level Miami Center
04:12PM 24.4019 -79.1089 226° Southwest 489 563 37,000  Level Miami Center
04:13PM 24.3125 -79.2097 226° Southwest 489 563 37,000  Level Miami Center
04:14PM 24.2147 -79.3219 226° Southwest 489 563 37,000  Level Miami Center
04:15PM 24.1253 -79.4225 228° Southwest 488 562 37,000  Level Miami Center
04:16PM 24.0356 -79.5322 250° West 488 562 37,000  Level Miami Center
04:17PM 23.9911 -79.6678 247° West 482 555 37,000  Level Miami Center
04:24PM 23.6211 -80.6226 248° West  Level FlightAware Approximate
04:25PM 23.5726 -80.7560 253° West  Level FlightAware Approximate
04:26PM 23.5335 -80.8926 248° West  Level FlightAware Approximate
04:27PM 23.4839 -81.0254 246° West  Level FlightAware Approximate
04:28PM 23.4310 -81.1567 248° West  Level FlightAware Approximate
04:29PM 23.3815 -81.2894 248° West  Level FlightAware Approximate
04:30PM 23.3319 -81.4221 248° West  Level FlightAware Approximate
04:31PM 23.2822 -81.5547 252° West  Level FlightAware Approximate
04:32PM 23.2414 -81.6883 247° West  Level FlightAware Approximate
04:33PM 23.1898 -81.8199 247° West  Level FlightAware Approximate
04:34PM 23.1380 -81.9514 247° West  Level FlightAware Approximate
04:35PM 23.0868 -82.0831 247° West  Level FlightAware Approximate
04:36PM 23.0343 -82.2141 248° West  Level FlightAware Approximate
04:37PM 22.9846 -82.3463 275° West  Level FlightAware Approximate
04:38PM 22.9949 -82.4887 71° East  Level Estimated
04:39PM 23.2545 -81.6555 247° West  Level FlightAware Approximate
04:40PM 23.2028 -81.7871 247° West  Level FlightAware Approximate
04:41PM 23.1511 -81.9186 247° West  Level FlightAware Approximate
04:42PM 23.0992 -82.0500 247° West  Level FlightAware Approximate
04:43PM 23.0472 -82.1813 247° West  Level FlightAware Approximate
04:44PM 22.9958 -82.3128 266° West  Level FlightAware Approximate
04:45PM 22.9860 -82.4552 86° East  Level Estimated
04:46PM 22.9958 -82.3128 266° West  Level Estimated
04:47PM 22.9860 -82.4552 86° East  Level Estimated
04:48PM 22.9958 -82.3128 250° West  Level Estimated
04:49PM 22.9667 -82.4000 340° North  Level FlightAware Approximate
04:50PM 23.0899 -82.4498 160° South  Level Estimated
04:51PM 22.9667 -82.4000 340° North  Level FlightAware Approximate
04:52PM 23.0899 -82.4498 160° South  Level Estimated
04:53PM 22.9667 -82.4000 160° South  Level FlightAware Approximate